Time;durP1;ratioP1;P1;durP2;ratioP2;P2;SDS_P1;SDS_P2;PMS_P1;PMS_P2;Temp;Humidity;BMP_temperature;BMP_pressure;BME280_temperature;BME280_humidity;BME280_pressure;Samples;Min_cycle;Max_cycle;Signal;HPM_P1;HPM_P2
2023/09/25 00:01:41;;;;;;;6.13;4.33;;;;;;;21.71;70.94;97178.34;5026920;28;20194;-75
2023/09/25 00:04:08;;;;;;;6.67;4.30;;;;;;;21.38;70.84;97165.47;5025629;28;20207;-75
2023/09/25 00:06:36;;;;;;;5.10;4.10;;;;;;;21.40;70.11;97160.91;5026653;28;20207;-75
2023/09/25 00:09:03;;;;;;;6.30;4.00;;;;;;;21.51;70.50;97163.44;5027642;28;20226;-76
2023/09/25 00:11:30;;;;;;;4.70;3.87;;;;;;;21.58;69.05;97161.91;5026677;28;20206;-76
2023/09/25 00:13:57;;;;;;;7.00;5.20;;;;;;;21.66;68.59;97164.72;5027032;28;20191;-76
2023/09/25 00:16:24;;;;;;;5.90;4.37;;;;;;;21.47;69.39;97162.88;5026611;28;20221;-77
2023/09/25 00:18:51;;;;;;;7.13;5.00;;;;;;;21.63;68.46;97168.47;5026558;28;20237;-76
2023/09/25 00:21:19;;;;;;;6.80;4.50;;;;;;;21.29;68.73;97158.38;5026710;28;20257;-76
2023/09/25 00:23:46;;;;;;;4.60;3.90;;;;;;;21.46;68.72;97165.63;5026550;28;20370;-75
2023/09/25 00:26:14;;;;;;;9.63;4.27;;;;;;;21.52;68.39;97158.03;5033592;28;20574;-75
2023/09/25 00:28:47;;;;;;;5.27;4.03;;;;;;;21.71;67.70;97167.78;5033155;28;20657;-74
2023/09/25 00:31:16;;;;;;;6.90;4.50;;;;;;;21.56;67.97;97169.13;5032171;28;20697;-74
2023/09/25 00:33:43;;;;;;;7.50;4.53;;;;;;;20.95;70.21;97166.50;5033202;28;20705;-74
2023/09/25 00:36:10;;;;;;;6.83;4.50;;;;;;;20.55;72.16;97160.28;5031734;28;20226;-74
2023/09/25 00:38:37;;;;;;;6.70;4.40;;;;;;;20.66;71.61;97160.25;5031897;28;20281;-76
2023/09/25 00:41:05;;;;;;;5.90;4.60;;;;;;;20.62;71.65;97155.34;5033050;28;20743;-75
2023/09/25 00:43:32;;;;;;;7.17;4.53;;;;;;;20.49;72.24;97159.97;5033444;28;20309;-76
2023/09/25 00:45:59;;;;;;;9.50;4.90;;;;;;;20.02;74.59;97158.59;5031552;28;20209;-75
2023/09/25 00:48:29;;;;;;;7.47;5.60;;;;;;;19.84;76.12;97157.47;5033176;28;20328;-74
2023/09/25 00:50:59;;;;;;;6.87;5.17;;;;;;;20.08;75.95;97165.97;5032961;28;20252;-75
2023/09/25 00:53:29;;;;;;;8.47;5.03;;;;;;;20.54;74.51;97170.94;5031607;28;20726;-75
2023/09/25 00:55:57;;;;;;;7.03;5.43;;;;;;;20.50;72.89;97107.22;5032974;28;20338;-75
2023/09/25 00:58:24;;;;;;;8.43;5.40;;;;;;;20.86;73.05;97167.28;5032816;28;20268;-75
2023/09/25 01:00:55;;;;;;;6.03;4.70;;;;;;;20.56;73.95;97175.13;5033204;28;20198;-75
2023/09/25 01:03:22;;;;;;;7.13;5.07;;;;;;;20.46;74.23;97166.34;5031473;28;20194;-76
2023/09/25 01:05:50;;;;;;;5.70;4.53;;;;;;;20.31;73.78;97158.88;5033174;28;20288;-75
2023/09/25 01:08:17;;;;;;;8.50;4.90;;;;;;;20.03;75.41;97134.00;5032864;28;20283;-76
2023/09/25 01:10:46;;;;;;;6.50;5.47;;;;;;;20.18;75.55;97159.00;5032764;28;20213;-76
2023/09/25 01:13:15;;;;;;;8.73;5.67;;;;;;;20.33;75.24;97147.25;5031607;28;20206;-75
2023/09/25 01:15:42;;;;;;;6.33;5.07;;;;;;;20.59;74.71;97158.22;5032634;28;20315;-75
2023/09/25 01:18:09;;;;;;;6.17;5.23;;;;;;;20.84;73.87;97173.63;5033133;28;20287;-75
2023/09/25 01:20:37;;;;;;;15.20;5.37;;;;;;;20.82;73.18;97173.78;5031555;28;20243;-74
2023/09/25 01:23:04;;;;;;;8.17;5.43;;;;;;;20.93;72.69;97176.34;5033160;28;20241;-74
2023/09/25 01:25:31;;;;;;;10.40;5.17;;;;;;;20.98;72.42;97174.13;5032557;28;20191;-75
2023/09/25 01:27:58;;;;;;;9.30;5.53;;;;;;;21.13;72.26;97172.03;5032627;28;20280;-75
2023/09/25 01:30:28;;;;;;;7.23;5.50;;;;;;;20.99;72.08;97167.91;5032773;28;20682;-76
2023/09/25 01:32:55;;;;;;;7.07;5.07;;;;;;;21.03;72.21;97161.44;5032455;28;20674;-76
2023/09/25 01:35:25;;;;;;;6.53;5.60;;;;;;;20.16;74.77;97159.13;5032841;28;20231;-76
2023/09/25 01:37:57;;;;;;;8.93;5.90;;;;;;;20.02;75.19;97161.22;5027567;28;20286;-76
2023/09/25 01:40:25;;;;;;;7.17;5.47;;;;;;;19.62;77.83;97174.09;5029606;28;20939;-75
2023/09/25 01:42:52;;;;;;;8.37;6.00;;;;;;;19.24;80.98;97158.75;5029244;28;20711;-74
2023/09/25 01:45:19;;;;;;;9.07;6.47;;;;;;;19.25;81.80;97170.06;5029408;28;20692;-75
2023/09/25 01:47:50;;;;;;;6.67;5.97;;;;;;;19.37;81.40;97164.72;5029672;28;20201;-75
2023/09/25 01:50:24;;;;;;;11.33;7.03;;;;;;;19.45;82.21;97162.31;5029203;28;20228;-75
2023/09/25 01:53:03;;;;;;;10.17;6.77;;;;;;;19.57;82.44;97163.16;5029579;28;20590;-75
2023/09/25 01:55:35;;;;;;;8.53;6.00;;;;;;;19.32;82.99;97151.09;5029088;28;20234;-75
2023/09/25 01:58:03;;;;;;;7.33;5.80;;;;;;;19.71;82.06;97172.53;5027946;28;20197;-75
2023/09/25 02:00:31;;;;;;;8.90;6.20;;;;;;;19.99;80.36;97169.38;5027922;28;20210;-75
2023/09/25 02:02:58;;;;;;;8.10;5.93;;;;;;;20.21;79.13;97175.44;5028898;28;20213;-74
2023/09/25 02:05:26;;;;;;;9.23;5.97;;;;;;;20.47;77.83;97180.31;5028077;28;20239;-73
2023/09/25 02:07:53;;;;;;;8.33;5.87;;;;;;;20.54;76.76;97178.84;5027535;28;20281;-74
2023/09/25 02:10:21;;;;;;;8.43;5.97;;;;;;;20.71;75.58;97179.09;5029048;28;20198;-74
2023/09/25 02:12:48;;;;;;;7.83;5.30;;;;;;;20.71;76.44;97178.28;5028934;28;20586;-74
2023/09/25 02:15:15;;;;;;;8.73;5.73;;;;;;;20.50;76.53;97183.53;5027503;28;20237;-75
2023/09/25 02:17:43;;;;;;;8.17;6.30;;;;;;;20.60;76.29;97179.19;5027450;28;20238;-76
2023/09/25 02:20:17;;;;;;;6.83;5.83;;;;;;;20.40;77.42;97179.16;5028608;28;20214;-75
2023/09/25 02:22:47;;;;;;;10.87;6.87;;;;;;;19.87;79.55;97183.50;5029133;28;20228;-75
2023/09/25 02:25:16;;;;;;;8.67;7.63;;;;;;;19.46;82.09;97148.22;5028481;28;20221;-76
2023/09/25 02:27:45;;;;;;;8.43;6.83;;;;;;;19.45;82.62;97178.06;5027347;28;20205;-75
2023/09/25 02:30:13;;;;;;;9.77;6.97;;;;;;;19.38;83.49;97169.03;5028506;28;20710;-76
2023/09/25 02:32:43;;;;;;;9.93;6.80;;;;;;;19.32;83.55;97161.59;5027212;28;20236;-75
2023/09/25 02:35:13;;;;;;;9.80;7.17;;;;;;;19.77;81.24;97182.56;5028520;28;20202;-75
2023/09/25 02:37:42;;;;;;;8.17;7.20;;;;;;;19.86;81.56;97179.22;5028401;28;20641;-75
2023/09/25 02:40:17;;;;;;;16.17;8.23;;;;;;;19.97;81.09;97180.00;5027508;28;20209;-75
2023/09/25 02:42:46;;;;;;;10.03;7.03;;;;;;;19.97;80.31;97171.31;5028353;28;20699;-77
2023/09/25 02:45:14;;;;;;;8.70;6.67;;;;;;;20.05;79.71;97167.06;5028387;28;20228;-77
2023/09/25 02:47:42;;;;;;;7.83;6.17;;;;;;;20.27;78.03;97184.59;5027047;28;20209;-77
2023/09/25 02:50:10;;;;;;;10.67;6.90;;;;;;;20.36;76.42;97188.28;5028251;28;20647;-77
2023/09/25 02:52:37;;;;;;;9.73;6.30;;;;;;;20.23;75.02;97188.44;5028620;28;20203;-76
2023/09/25 02:55:04;;;;;;;8.07;5.77;;;;;;;20.11;75.29;97197.31;5026866;28;20225;-76
2023/09/25 02:57:31;;;;;;;11.63;6.60;;;;;;;19.96;75.46;97180.97;5027127;28;20230;-76
2023/09/25 03:00:01;;;;;;;10.13;6.30;;;;;;;19.94;76.05;97189.94;5026645;28;20213;-76
2023/09/25 03:02:30;;;;;;;10.07;6.70;;;;;;;19.71;77.04;97194.41;5027927;28;20639;-76
2023/09/25 03:04:58;;;;;;;7.87;5.77;;;;;;;19.81;76.74;97192.72;5028257;28;20593;-76
2023/09/25 03:07:25;;;;;;;7.47;5.27;;;;;;;19.90;76.03;97193.78;5027867;28;20212;-76
2023/09/25 03:09:52;;;;;;;9.27;6.50;;;;;;;19.78;76.55;97190.34;5026759;28;20210;-76
2023/09/25 03:12:19;;;;;;;9.70;6.23;;;;;;;19.61;77.67;97192.63;5027594;28;20669;-77
2023/09/25 03:14:46;;;;;;;10.23;6.27;;;;;;;19.82;77.39;97196.19;5027980;28;20209;-76
2023/09/25 03:17:13;;;;;;;7.43;5.63;;;;;;;20.08;75.91;97208.06;5042361;28;20248;-76
2023/09/25 03:19:41;;;;;;;12.30;6.63;;;;;;;20.20;75.46;97209.72;5047585;28;20205;-75
2023/09/25 03:22:08;;;;;;;9.50;6.27;;;;;;;20.34;74.45;97204.16;5047614;28;20198;-74
2023/09/25 03:24:35;;;;;;;7.87;5.93;;;;;;;20.29;75.25;97201.09;5047558;28;20652;-75
2023/09/25 03:27:03;;;;;;;10.40;5.77;;;;;;;20.33;75.21;97214.81;5045933;28;20197;-75
2023/09/25 03:29:30;;;;;;;9.37;6.10;;;;;;;20.34;74.64;97209.41;5037699;28;20210;-75
2023/09/25 03:31:57;;;;;;;14.17;7.00;;;;;;;20.20;75.28;97212.34;5026428;28;20206;-75
2023/09/25 03:34:26;;;;;;;14.20;7.13;;;;;;;20.25;75.56;97223.34;5026021;28;20575;-75
2023/09/25 03:36:53;;;;;;;13.27;7.17;;;;;;;20.18;76.19;97225.59;5027580;28;20284;-81
2023/09/25 03:39:20;;;;;;;12.83;7.70;;;;;;;20.09;76.13;97231.59;5045966;28;20205;-75
2023/09/25 03:41:47;;;;;;;14.27;6.77;;;;;;;20.15;75.88;97235.53;5040977;28;20224;-74
2023/09/25 03:44:14;;;;;;;8.60;6.87;;;;;;;20.03;76.25;97220.75;5044219;28;20210;-77
2023/09/25 03:46:42;;;;;;;10.90;6.87;;;;;;;20.14;75.76;97233.84;5046213;28;20190;-78
2023/09/25 03:49:09;;;;;;;13.27;6.50;;;;;;;20.23;75.16;97248.94;5045533;28;20289;-74
2023/09/25 03:51:36;;;;;;;9.87;6.73;;;;;;;20.27;74.73;97245.09;5047103;28;20254;-74
2023/09/25 03:54:03;;;;;;;12.07;7.23;;;;;;;19.82;75.11;97217.22;5045878;28;21024;-75
2023/09/25 03:56:31;;;;;;;10.00;7.27;;;;;;;19.40;77.43;97238.03;5046515;28;20224;-74
2023/09/25 03:58:58;;;;;;;9.83;7.50;;;;;;;19.59;77.18;97252.34;5039477;28;20930;-74
2023/09/25 04:01:25;;;;;;;11.77;7.83;;;;;;;19.33;77.74;97257.84;5047027;28;20296;-76
2023/09/25 04:03:52;;;;;;;12.83;7.70;;;;;;;19.68;77.22;97262.16;5044545;28;20221;-73
2023/09/25 04:06:20;;;;;;;12.40;7.07;;;;;;;19.67;77.14;97265.72;5046046;28;20583;-73
2023/09/25 04:08:47;;;;;;;12.83;7.83;;;;;;;19.44;78.63;97255.22;5046919;28;20244;-74
2023/09/25 04:11:15;;;;;;;9.00;7.37;;;;;;;18.99;80.40;97232.47;5046397;28;20597;-74
2023/09/25 04:13:42;;;;;;;11.33;7.87;;;;;;;19.09;80.73;97269.34;5046025;28;20228;-76
2023/09/25 04:16:12;;;;;;;9.00;8.03;;;;;;;18.90;82.28;97264.66;5045478;28;20217;-79
2023/09/25 04:18:42;;;;;;;11.37;7.80;;;;;;;18.65;82.62;97270.06;5045687;28;20240;-74
2023/09/25 04:21:14;;;;;;;12.73;8.20;;;;;;;18.76;82.12;97254.34;5043863;28;20331;-75
2023/09/25 04:23:42;;;;;;;10.33;7.80;;;;;;;18.83;82.53;97270.47;5046708;28;20262;-75
2023/09/25 04:26:11;;;;;;;15.30;8.27;;;;;;;18.82;82.77;97263.56;5044730;28;20208;-76
2023/09/25 04:28:40;;;;;;;13.17;8.17;;;;;;;18.63;84.08;97269.34;5046325;28;20707;-74
2023/09/25 04:31:09;;;;;;;10.77;7.83;;;;;;;18.39;85.42;97274.56;5047154;28;20266;-78
2023/09/25 04:33:38;;;;;;;11.77;7.90;;;;;;;18.56;84.56;97255.00;5046264;28;20250;-83
2023/09/25 04:36:10;;;;;;;12.00;8.00;;;;;;;18.85;83.32;97282.53;5046434;28;20637;-82
2023/09/25 04:38:38;;;;;;;9.77;7.63;;;;;;;18.91;82.94;97276.84;5051106;28;20292;-78
2023/09/25 04:41:06;;;;;;;14.80;8.20;;;;;;;18.95;82.24;97262.53;5051931;28;20237;-82
2023/09/25 04:43:33;;;;;;;14.00;7.83;;;;;;;19.02;81.81;97274.22;5050713;28;20218;-81
2023/09/25 04:46:00;;;;;;;14.43;9.83;;;;;;;19.41;80.57;97281.72;5046456;28;20216;-78
2023/09/25 04:48:29;;;;;;;13.87;8.50;;;;;;;19.58;79.55;97276.97;5046084;28;20192;-86
2023/09/25 04:50:57;;;;;;;15.27;8.10;;;;;;;19.65;79.19;97278.16;5046140;28;20692;-76
2023/09/25 04:53:25;;;;;;;12.57;8.53;;;;;;;19.81;78.15;97281.22;5046539;28;20204;-78
2023/09/25 04:55:52;;;;;;;10.47;8.00;;;;;;;19.87;77.78;97262.34;5046484;28;20204;-82
2023/09/25 04:58:20;;;;;;;16.97;8.57;;;;;;;19.87;77.83;97278.13;5047099;28;20198;-77
2023/09/25 05:00:48;;;;;;;13.23;7.70;;;;;;;19.94;76.89;97274.91;5046472;28;20755;-79
2023/09/25 05:03:15;;;;;;;12.87;7.03;;;;;;;20.18;75.83;97270.31;5045915;28;20683;-75
2023/09/25 05:05:44;;;;;;;17.63;9.33;;;;;;;20.28;75.64;97279.16;5045656;28;20212;-79
2023/09/25 05:08:12;;;;;;;8.53;6.90;;;;;;;20.11;75.35;97290.16;5044687;28;20248;-81
2023/09/25 05:10:39;;;;;;;13.30;6.97;;;;;;;20.13;75.38;97290.06;5048389;28;20196;-78
2023/09/25 05:13:06;;;;;;;12.60;6.40;;;;;;;20.26;74.16;97296.00;5053554;28;20296;-77
2023/09/25 05:15:33;;;;;;;10.97;6.77;;;;;;;20.28;74.22;97291.47;5052399;28;20263;-80
2023/09/25 05:18:02;;;;;;;16.83;6.50;;;;;;;20.21;74.26;97293.78;5051301;28;20624;-80
2023/09/25 05:20:30;;;;;;;10.60;6.60;;;;;;;20.24;74.03;97303.19;5052804;28;20205;-75
2023/09/25 05:22:57;;;;;;;9.33;6.57;;;;;;;20.43;73.51;97305.19;5051858;28;20653;-84
2023/09/25 05:25:26;;;;;;;12.13;7.17;;;;;;;20.31;73.29;97299.13;5051035;28;20244;-83
2023/09/25 05:27:58;;;;;;;9.67;6.20;;;;;;;20.36;73.53;97286.41;5049787;28;20669;-77
2023/09/25 05:30:25;;;;;;;13.07;6.70;;;;;;;20.22;74.23;97294.59;5050553;28;20659;-77
2023/09/25 05:32:53;;;;;;;8.67;6.50;;;;;;;20.40;73.54;97301.03;5051409;28;20201;-79
2023/09/25 05:35:20;;;;;;;11.33;6.17;;;;;;;20.17;73.56;97292.28;5050424;28;20478;-78
2023/09/25 05:37:48;;;;;;;11.83;6.27;;;;;;;19.94;74.29;97289.84;5052633;28;20228;-75
2023/09/25 05:40:18;;;;;;;12.90;6.57;;;;;;;20.08;74.37;97307.97;5051243;28;20228;-79
2023/09/25 05:42:47;;;;;;;12.23;6.73;;;;;;;20.19;74.45;97303.59;5051333;28;20194;-78
2023/09/25 05:45:17;;;;;;;12.27;7.17;;;;;;;20.27;73.80;97303.81;5050347;28;20209;-78
2023/09/25 05:47:47;;;;;;;9.03;6.73;;;;;;;20.46;73.35;97307.56;5049149;28;20205;-80
2023/09/25 05:50:16;;;;;;;11.47;6.93;;;;;;;20.18;nan;97269.47;5050842;28;20222;-75
2023/09/25 05:52:43;;;;;;;10.90;6.93;;;;;;;20.26;73.08;97274.97;5049950;28;20194;-77
2023/09/25 05:55:10;;;;;;;11.13;6.40;;;;;;;20.23;74.10;97306.81;5049427;28;20299;-86
2023/09/25 05:57:38;;;;;;;11.63;6.87;;;;;;;20.27;73.77;97308.22;5048886;28;20237;-76
2023/09/25 06:00:12;;;;;;;10.77;6.50;;;;;;;20.36;73.98;97312.72;5051874;28;20205;-75
2023/09/25 06:02:41;;;;;;;9.83;5.90;;;;;;;20.39;73.45;97287.97;5047770;28;20243;-77
2023/09/25 06:05:12;;;;;;;11.73;5.73;;;;;;;20.66;72.78;97315.53;5049040;28;20259;-78
2023/09/25 06:07:42;;;;;;;8.47;5.80;;;;;;;20.47;73.93;97317.97;5049162;28;20197;-75
2023/09/25 06:10:10;;;;;;;11.97;5.73;;;;;;;20.51;73.63;97297.50;5048366;28;20297;-76
2023/09/25 06:12:39;;;;;;;20.20;9.90;;;;;;;20.68;73.78;97315.38;5054710;28;20296;-77
2023/09/25 06:15:11;;;;;;;8.50;6.93;;;;;;;20.54;73.94;97313.06;5051662;28;20227;-79
2023/09/25 06:17:40;;;;;;;11.77;7.17;;;;;;;20.49;74.43;97312.56;5048725;28;20245;-80
2023/09/25 06:20:20;;;;;;;11.67;6.67;;;;;;;20.69;74.58;97322.34;5048532;28;20221;-76
2023/09/25 06:22:47;;;;;;;13.10;7.67;;;;;;;20.79;74.33;97320.63;5047996;28;20194;-76
2023/09/25 06:25:17;;;;;;;12.37;7.57;;;;;;;20.82;74.48;97336.16;5047158;28;20208;-79
2023/09/25 06:27:47;;;;;;;14.93;7.83;;;;;;;20.95;73.92;97327.13;5049338;28;20213;-82
2023/09/25 06:30:16;;;;;;;12.60;6.87;;;;;;;21.04;74.59;97329.03;5049041;28;20234;-81
2023/09/25 06:32:43;;;;;;;13.73;6.50;;;;;;;21.11;74.65;97337.25;5049003;28;20197;-77
2023/09/25 06:35:11;;;;;;;7.77;6.03;;;;;;;21.43;73.08;97347.75;5049100;28;20206;-77
2023/09/25 06:37:38;;;;;;;9.07;5.73;;;;;;;21.41;72.31;97349.69;5048549;28;20238;-82
2023/09/25 06:40:09;;;;;;;9.67;6.30;;;;;;;21.46;72.14;97352.75;5048314;28;20232;-79
2023/09/25 06:42:38;;;;;;;7.87;5.40;;;;;;;21.43;71.78;97347.75;5050363;28;20205;-79
2023/09/25 06:45:06;;;;;;;7.77;5.67;;;;;;;21.23;71.61;97322.22;5049385;28;20240;-78
2023/09/25 06:47:36;;;;;;;15.70;6.10;;;;;;;21.19;72.33;97353.25;5049112;28;20201;-76
2023/09/25 06:50:05;;;;;;;12.50;5.03;;;;;;;21.33;72.38;97352.13;5049268;28;20214;-80
2023/09/25 06:52:33;;;;;;;6.90;5.20;;;;;;;21.31;72.22;97343.50;5048187;28;20234;-80
2023/09/25 06:55:00;;;;;;;9.83;5.37;;;;;;;21.34;71.54;97349.34;5052157;28;20610;-80
2023/09/25 06:57:30;;;;;;;5.57;5.00;;;;;;;21.40;70.77;97348.84;5049291;28;20255;-78
2023/09/25 06:59:57;;;;;;;7.77;5.73;;;;;;;21.55;70.67;97346.72;5048545;28;20206;-82
2023/09/25 07:02:25;;;;;;;6.50;4.27;;;;;;;21.59;70.53;97353.38;5048625;28;20198;-81
2023/09/25 07:04:53;;;;;;;13.13;5.60;;;;;;;21.90;69.91;97347.19;5050039;28;20199;-79
2023/09/25 07:07:20;;;;;;;14.27;5.50;;;;;;;22.10;68.65;97356.84;5053303;28;20293;-75
2023/09/25 07:09:47;;;;;;;11.17;5.20;;;;;;;22.15;69.14;97349.38;5052865;28;20206;-81
2023/09/25 07:12:17;;;;;;;7.97;4.73;;;;;;;22.14;69.54;97349.50;5054635;28;20191;-79
2023/09/25 07:14:58;;;;;;;8.90;4.80;;;;;;;22.43;68.12;97343.34;5060990;28;20202;-80
2023/09/25 07:17:27;;;;;;;26.53;11.47;;;;;;;22.68;67.54;97342.03;5057576;28;20241;-76
2023/09/25 07:19:56;;;;;;;9.40;4.80;;;;;;;22.63;67.48;97336.31;5060021;28;20211;-79
2023/09/25 07:22:27;;;;;;;6.10;4.50;;;;;;;22.55;67.89;97349.34;5038239;28;20196;-81
2023/09/25 07:24:55;;;;;;;7.93;5.13;;;;;;;22.91;67.45;97355.81;5049182;28;20246;-85
2023/09/25 07:27:23;;;;;;;6.57;4.60;;;;;;;22.98;67.32;97351.66;5049988;28;20234;-82
2023/09/25 07:29:50;;;;;;;5.27;4.60;;;;;;;;;;5048907;28;20666;-80
2023/09/25 07:32:17;;;;;;;9.90;5.30;;;;;;;22.98;66.83;97335.81;5029302;28;20208;-84
2023/09/25 07:34:45;;;;;;;9.20;6.43;;;;;;;23.29;66.07;97350.50;5050927;28;20202;-81
2023/09/25 07:37:12;;;;;;;9.73;5.80;;;;;;;23.60;64.85;97359.09;5048629;28;20282;-83
2023/09/25 07:39:42;;;;;;;10.33;4.70;;;;;;;23.69;63.74;97353.81;5049622;28;20197;-79
2023/09/25 07:42:12;;;;;;;5.93;4.70;;;;;;;23.75;63.73;97353.25;5047079;28;20530;-82
2023/09/25 07:44:39;;;;;;;7.03;5.40;;;;;;;23.91;63.47;97342.03;5056018;28;20201;-82
2023/09/25 07:47:07;;;;;;;7.27;4.80;;;;;;;24.04;62.50;97350.53;5055764;28;20272;-79
2023/09/25 07:49:40;;;;;;;7.90;5.07;;;;;;;24.20;62.45;97343.63;5046756;28;20199;-78
2023/09/25 07:52:19;;;;;;;6.90;3.83;;;;;;;24.05;61.91;97350.38;5047172;28;20274;-77
2023/09/25 07:54:48;;;;;;;10.57;5.03;;;;;;;23.92;61.52;97341.91;5046391;28;20213;-76
2023/09/25 07:57:19;;;;;;;8.73;4.90;;;;;;;24.37;60.45;97349.13;5046088;28;20256;-77
2023/09/25 07:59:48;;;;;;;10.07;4.13;;;;;;;24.54;59.89;97333.28;5047629;28;20208;-78
2023/09/25 08:02:20;;;;;;;8.67;4.00;;;;;;;24.58;59.74;97341.75;5046485;28;20205;-78
2023/09/25 08:04:48;;;;;;;7.23;3.90;;;;;;;24.77;58.92;97331.06;5047129;28;20296;-80
2023/09/25 08:07:18;;;;;;;8.40;5.13;;;;;;;24.73;58.86;97325.22;5027112;28;20294;-79
2023/09/25 08:09:46;;;;;;;7.40;4.90;;;;;;;24.66;59.58;97325.94;5027102;28;20274;-79
2023/09/25 08:12:14;;;;;;;8.83;4.53;;;;;;;24.70;58.98;97329.94;5029313;28;20210;-84
2023/09/25 08:14:41;;;;;;;7.50;4.70;;;;;;;24.84;59.03;97318.84;5031696;28;20252;-75
2023/09/25 08:17:08;;;;;;;6.30;3.90;;;;;;;24.91;58.92;97318.13;5032418;28;20254;-78
2023/09/25 08:19:36;;;;;;;7.57;4.97;;;;;;;25.03;58.22;97306.28;5037426;28;20219;-77
2023/09/25 08:22:03;;;;;;;16.93;7.90;;;;;;;25.28;56.76;97309.97;5033883;28;20200;-81
2023/09/25 08:24:30;;;;;;;13.30;4.70;;;;;;;24.96;56.63;97272.59;5042316;28;20286;-78
2023/09/25 08:26:58;;;;;;;8.27;4.60;;;;;;;25.56;55.32;97319.47;5045912;28;20189;-75
2023/09/25 08:29:25;;;;;;;7.77;4.63;;;;;;;25.62;54.72;97318.00;5036286;28;20205;-75
2023/09/25 08:31:52;;;;;;;12.07;5.57;;;;;;;25.87;54.47;97316.31;5036909;28;20201;-75
2023/09/25 08:34:19;;;;;;;9.73;5.30;;;;;;;26.04;53.65;97321.56;5038343;28;20256;-80
2023/09/25 08:36:46;;;;;;;12.00;7.40;;;;;;;26.37;52.65;97314.59;5034711;28;20221;-78
2023/09/25 08:39:14;;;;;;;12.30;5.00;;;;;;;26.26;52.57;97317.53;5052737;28;20205;-80
2023/09/25 08:41:43;;;;;;;7.13;4.30;;;;;;;26.42;51.89;97302.50;5038183;28;20230;-75
2023/09/25 08:44:10;;;;;;;6.80;4.90;;;;;;;26.47;52.06;97307.31;5037411;28;20202;-76
2023/09/25 08:46:38;;;;;;;9.10;5.17;;;;;;;26.60;52.06;97319.13;5040846;28;20208;-76
2023/09/25 08:49:06;;;;;;;6.60;4.53;;;;;;;26.31;51.37;97288.69;5042410;28;20207;-84
2023/09/25 08:51:35;;;;;;;7.03;4.40;;;;;;;26.25;51.11;97315.88;5038726;28;20694;-81
2023/09/25 08:54:03;;;;;;;6.20;4.80;;;;;;;26.44;50.89;97305.00;5037248;28;20558;-82
2023/09/25 08:56:32;;;;;;;8.47;4.77;;;;;;;26.56;50.58;97303.69;5041567;28;20643;-75
2023/09/25 08:59:00;;;;;;;4.83;4.30;;;;;;;26.61;50.29;97309.34;5042119;28;20234;-75
2023/09/25 09:01:28;;;;;;;8.40;4.30;;;;;;;26.72;50.47;97305.59;5042054;28;20198;-77
2023/09/25 09:03:56;;;;;;;6.63;4.13;;;;;;;26.66;50.21;97308.84;5037172;28;20290;-76
2023/09/25 09:06:23;;;;;;;10.30;5.27;;;;;;;26.36;51.12;97313.75;5039362;28;20194;-75
2023/09/25 09:08:54;;;;;;;12.80;4.73;;;;;;;26.51;51.31;97312.16;5042199;28;20293;-76
2023/09/25 09:11:50;;;;;;;8.73;5.57;;;;;;;26.55;50.66;97304.69;5059401;28;20210;-76
2023/09/25 09:14:35;;;;;;;12.63;4.97;;;;;;;26.50;50.62;97299.84;5044062;28;20210;-79
2023/09/25 09:17:04;;;;;;;5.80;4.03;;;;;;;26.49;50.78;97300.84;5057164;28;20237;-76
2023/09/25 09:19:44;;;;;;;5.47;4.77;;;;;;;26.61;50.72;97296.91;5058298;28;20288;-76
2023/09/25 09:22:26;;;;;;;10.73;5.27;;;;;;;26.69;50.34;97305.91;5044692;28;20602;-77
2023/09/25 09:24:56;;;;;;;8.13;4.60;;;;;;;26.57;49.95;97298.22;5037341;28;20201;-77
2023/09/25 09:27:26;;;;;;;8.27;4.70;;;;;;;26.22;50.20;97274.53;5036342;28;20630;-76
2023/09/25 09:29:56;;;;;;;6.13;4.73;;;;;;;26.39;50.13;97291.38;5036280;28;20206;-76
2023/09/25 09:32:26;;;;;;;6.60;4.93;;;;;;;26.68;50.35;97306.88;5034435;28;20194;-76
2023/09/25 09:34:53;;;;;;;7.90;4.63;;;;;;;27.10;49.57;97318.25;5034802;28;20191;-76
2023/09/25 09:37:21;;;;;;;10.07;4.97;;;;;;;26.92;49.82;97307.78;5038437;28;20250;-80
2023/09/25 09:39:52;;;;;;;6.30;5.50;;;;;;;27.14;48.25;97303.63;5038804;28;20669;-75
2023/09/25 09:42:20;;;;;;;10.83;5.53;;;;;;;27.30;49.17;97316.94;5036035;28;20655;-80
2023/09/25 09:44:48;;;;;;;7.47;4.50;;;;;;;26.83;49.23;97314.06;5037478;28;20263;-76
2023/09/25 09:47:19;;;;;;;12.03;4.87;;;;;;;26.74;49.66;97298.28;5039345;28;20294;-78
2023/09/25 09:49:48;;;;;;;7.70;5.87;;;;;;;26.94;49.94;97305.78;5034914;28;20294;-76
2023/09/25 09:52:19;;;;;;;8.40;4.93;;;;;;;27.02;48.96;97308.44;5032252;28;20229;-74
2023/09/25 09:54:47;;;;;;;9.03;5.07;;;;;;;27.27;48.42;97310.09;5032017;28;20202;-76
2023/09/25 09:57:15;;;;;;;12.23;6.27;;;;;;;27.50;47.91;97283.69;5031117;28;20712;-77
2023/09/25 09:59:42;;;;;;;21.83;7.70;;;;;;;27.71;47.81;97309.75;5048389;28;20217;-75
2023/09/25 10:02:09;;;;;;;8.57;4.80;;;;;;;26.91;48.74;97300.81;5036704;28;20213;-75
2023/09/25 10:04:37;;;;;;;8.00;4.60;;;;;;;26.56;49.67;97309.03;5036030;28;20309;-74
2023/09/25 10:07:08;;;;;;;6.63;4.30;;;;;;;26.84;48.92;97299.78;5037838;28;20202;-81
2023/09/25 10:09:36;;;;;;;12.37;4.73;;;;;;;27.04;48.43;97295.81;5038204;28;20209;-76
2023/09/25 10:12:04;;;;;;;8.67;5.67;;;;;;;27.14;48.13;97275.19;5036564;28;20214;-75
2023/09/25 10:14:40;;;;;;;10.60;5.43;;;;;;;27.19;47.56;97270.22;5036900;28;20657;-76
2023/09/25 10:17:07;;;;;;;8.43;4.63;;;;;;;27.41;47.56;97287.34;5038300;28;20234;-75
2023/09/25 10:19:40;;;;;;;8.07;5.87;;;;;;;27.14;47.77;97287.69;5035085;28;20207;-76
2023/09/25 10:22:12;;;;;;;6.33;3.90;;;;;;;27.23;47.84;97276.88;5039895;28;20223;-75
2023/09/25 10:24:45;;;;;;;7.17;4.50;;;;;;;27.08;47.97;97277.72;5039692;28;20198;-76
2023/09/25 10:27:16;;;;;;;6.27;4.37;;;;;;;26.53;49.02;97250.88;5035919;28;20290;-80
2023/09/25 10:30:06;;;;;;;8.43;4.20;;;;;;;26.80;49.30;97266.56;5033945;28;20286;-85
2023/09/25 10:32:40;;;;;;;6.07;4.23;;;;;;;26.53;48.96;97262.34;5037585;28;20669;-76
2023/09/25 10:35:43;;;;;;;7.03;4.23;;;;;;;26.44;49.18;97268.63;5038366;28;20202;-79
2023/09/25 10:38:11;;;;;;;8.87;4.73;;;;;;;26.85;48.85;97261.59;5038505;28;20230;-76
2023/09/25 10:41:00;;;;;;;5.33;4.00;;;;;;;26.98;48.66;97248.63;5041270;28;20213;-78
2023/09/25 10:43:29;;;;;;;9.07;4.03;;;;;;;27.17;48.49;97256.25;5042512;28;20194;-78
2023/09/25 10:45:56;;;;;;;8.07;4.90;;;;;;;27.14;48.02;97237.97;5044718;28;20209;-76
2023/09/25 10:48:25;;;;;;;4.83;4.00;;;;;;;27.17;47.52;97264.25;5040601;28;20198;-81
2023/09/25 10:50:52;;;;;;;6.80;4.27;;;;;;;27.31;47.61;97255.56;5040948;28;20206;-84
2023/09/25 10:53:23;;;;;;;6.50;4.60;;;;;;;27.43;46.67;97250.75;5028156;28;20217;-83
2023/09/25 10:55:51;;;;;;;7.03;3.97;;;;;;;27.59;46.14;97225.94;5031223;28;20194;-88
2023/09/25 10:58:18;;;;;;;11.33;4.83;;;;;;;27.82;46.00;97250.84;5032199;28;20230;-84
2023/09/25 11:00:47;;;;;;;5.67;4.40;;;;;;;27.99;46.01;97247.13;5043860;28;20245;-77
2023/09/25 11:03:14;;;;;;;5.37;3.90;;;;;;;27.99;46.00;97247.94;5037150;28;20202;-76
2023/09/25 11:05:43;;;;;;;6.57;4.10;;;;;;;27.85;46.38;97245.97;5038166;28;20198;-80
2023/09/25 11:08:12;;;;;;;6.27;4.10;;;;;;;27.50;46.47;97240.25;5041353;28;20309;-76
2023/09/25 11:10:40;;;;;;;5.10;3.73;;;;;;;27.36;47.27;97234.66;5039337;28;20230;-78
2023/09/25 11:13:08;;;;;;;6.70;4.27;;;;;;;27.45;47.11;97234.63;5037964;28;20202;-80
2023/09/25 11:15:39;;;;;;;4.73;3.87;;;;;;;27.66;46.53;97240.22;5041485;28;20198;-78
2023/09/25 11:18:08;;;;;;;7.70;4.47;;;;;;;27.64;46.56;97220.91;5033094;28;20242;-82
2023/09/25 11:20:37;;;;;;;7.33;4.93;;;;;;;27.70;46.14;97225.59;5038586;28;20230;-79
2023/09/25 11:23:08;;;;;;;7.63;4.03;;;;;;;27.71;45.93;97235.22;5016563;28;20218;-76
2023/09/25 11:25:50;;;;;;;8.20;4.20;;;;;;;27.50;45.79;97205.66;5037547;28;20628;-78
2023/09/25 11:28:22;;;;;;;5.30;4.20;;;;;;;27.60;45.75;97209.81;5016661;28;20214;-78
2023/09/25 11:30:50;;;;;;;9.00;4.53;;;;;;;27.78;44.94;97201.59;5036457;28;20214;-79
2023/09/25 11:33:23;;;;;;;6.53;4.10;;;;;;;28.24;44.23;97202.53;5033993;28;20270;-76
2023/09/25 11:35:54;;;;;;;8.27;4.40;;;;;;;28.52;43.89;97206.38;5029351;28;20237;-75
2023/09/25 11:38:25;;;;;;;5.47;3.50;;;;;;;28.46;43.73;97197.22;5029675;28;20253;-78
2023/09/25 11:40:53;;;;;;;4.40;3.87;;;;;;;28.01;43.44;97203.34;5027230;28;20206;-77